createdAt,value
2024-01-09T00:01:05.396Z,8.60
2024-01-09T00:03:33.009Z,8.68
2024-01-09T00:05:59.360Z,8.38
2024-01-09T00:08:26.366Z,8.48
2024-01-09T00:10:52.690Z,8.30
2024-01-09T00:13:18.949Z,8.20
2024-01-09T00:15:45.351Z,8.70
2024-01-09T00:18:11.862Z,8.10
2024-01-09T00:20:38.246Z,9.02
2024-01-09T00:23:04.752Z,8.60
2024-01-09T00:25:31.096Z,9.13
2024-01-09T00:27:57.422Z,9.25
2024-01-09T00:30:23.748Z,8.30
2024-01-09T00:32:50.647Z,9.05
2024-01-09T00:35:18.181Z,9.52
2024-01-09T00:37:44.519Z,8.80
2024-01-09T00:40:10.807Z,8.60
2024-01-09T00:42:37.118Z,8.30
2024-01-09T00:45:05.073Z,8.48
2024-01-09T00:47:33.381Z,8.52
2024-01-09T00:50:00.025Z,9.57
2024-01-09T00:52:26.369Z,8.93
2024-01-09T00:54:52.655Z,8.50
2024-01-09T00:57:20.049Z,8.60
2024-01-09T00:59:46.611Z,8.73
2024-01-09T01:02:13.068Z,9.10
2024-01-09T01:04:39.779Z,8.32
2024-01-09T01:07:06.161Z,8.57
2024-01-09T01:09:32.470Z,8.52
2024-01-09T01:11:58.837Z,7.82
2024-01-09T01:14:25.271Z,8.32
2024-01-09T01:16:52.442Z,8.95
2024-01-09T01:19:18.739Z,8.40
2024-01-09T01:21:45.159Z,8.35
2024-01-09T01:24:11.478Z,7.72
2024-01-09T01:26:38.707Z,8.38
2024-01-09T01:29:05.104Z,8.27
2024-01-09T01:31:31.386Z,8.00
2024-01-09T01:33:58.330Z,7.90
2024-01-09T01:36:24.742Z,7.57
2024-01-09T01:38:51.081Z,8.32
2024-01-09T01:41:17.501Z,8.38
2024-01-09T01:43:43.805Z,7.82
2024-01-09T01:46:10.251Z,7.97
2024-01-09T01:48:36.892Z,8.15
2024-01-09T01:51:03.637Z,8.45
2024-01-09T01:53:31.276Z,8.25
2024-01-09T01:55:57.808Z,8.50
2024-01-09T01:58:25.784Z,9.50
2024-01-09T02:00:52.467Z,8.45
2024-01-09T02:03:18.938Z,9.25
2024-01-09T02:05:46.011Z,7.57
2024-01-09T02:08:13.543Z,8.27
2024-01-09T02:10:39.875Z,8.50
2024-01-09T02:13:06.888Z,8.38
2024-01-09T02:15:33.231Z,8.20
2024-01-09T02:17:59.772Z,8.43
2024-01-09T02:20:26.156Z,7.95
2024-01-09T02:22:52.495Z,9.15
2024-01-09T02:25:18.906Z,9.07
2024-01-09T02:27:48.285Z,8.73
2024-01-09T02:30:14.757Z,9.43
2024-01-09T02:32:41.200Z,9.07
2024-01-09T02:35:07.868Z,8.48
2024-01-09T02:37:34.181Z,8.73
2024-01-09T02:40:04.316Z,8.38
2024-01-09T02:42:30.665Z,6.73
2024-01-09T02:44:57.205Z,9.00
2024-01-09T02:47:23.664Z,8.40
2024-01-09T02:49:50.010Z,8.93
2024-01-09T02:52:16.849Z,9.07
2024-01-09T02:54:43.346Z,9.88
2024-01-09T02:57:10.684Z,8.50
2024-01-09T02:59:37.395Z,8.95
2024-01-09T03:02:03.921Z,9.32
2024-01-09T03:04:30.180Z,9.32
2024-01-09T03:06:56.522Z,9.65
2024-01-09T03:09:22.984Z,10.13
2024-01-09T03:11:49.346Z,9.50
2024-01-09T03:14:15.689Z,9.70
2024-01-09T03:16:42.124Z,9.30
2024-01-09T03:19:08.594Z,9.55
2024-01-09T03:21:34.953Z,8.93
2024-01-09T03:24:01.254Z,9.52
2024-01-09T03:26:27.587Z,8.40
2024-01-09T03:28:54.212Z,8.55
2024-01-09T03:31:23.749Z,8.13
2024-01-09T03:33:50.593Z,8.38
2024-01-09T03:36:17.391Z,8.85
2024-01-09T03:38:44.399Z,8.82
2024-01-09T03:41:10.892Z,8.27
2024-01-09T03:43:37.193Z,8.60
2024-01-09T03:46:03.661Z,8.55
2024-01-09T03:48:30.081Z,8.50
2024-01-09T03:50:56.490Z,7.90
2024-01-09T03:53:22.794Z,7.70
2024-01-09T03:55:49.209Z,7.85
2024-01-09T03:58:15.489Z,7.75
2024-01-09T04:00:41.835Z,8.25
2024-01-09T04:03:08.163Z,7.70
2024-01-09T04:05:34.593Z,8.15
2024-01-09T04:08:00.916Z,8.35
2024-01-09T04:10:27.376Z,8.43
2024-01-09T04:12:54.373Z,7.82
2024-01-09T04:15:20.675Z,8.48
2024-01-09T04:17:47.049Z,8.05
2024-01-09T04:20:13.774Z,7.78
2024-01-09T04:22:40.196Z,8.50
2024-01-09T04:25:06.644Z,7.80
2024-01-09T04:27:32.889Z,7.85
2024-01-09T04:29:59.264Z,8.85
2024-01-09T04:32:25.743Z,8.18
2024-01-09T04:34:53.716Z,8.43
2024-01-09T04:37:20.046Z,8.00
2024-01-09T04:39:46.352Z,8.13
2024-01-09T04:42:12.726Z,7.68
2024-01-09T04:44:39.050Z,8.00
2024-01-09T04:47:05.411Z,8.60
2024-01-09T04:49:31.982Z,8.25
2024-01-09T04:51:58.467Z,8.30
2024-01-09T04:54:24.940Z,7.97
2024-01-09T04:56:51.291Z,8.20
2024-01-09T04:59:17.691Z,7.30
2024-01-09T05:01:48.970Z,8.70
2024-01-09T05:04:15.344Z,8.07
2024-01-09T05:06:41.696Z,8.63
2024-01-09T05:09:08.045Z,8.95
2024-01-09T05:11:34.453Z,8.05
2024-01-09T05:14:00.730Z,8.70
2024-01-09T05:16:28.549Z,8.55
2024-01-09T05:18:55.236Z,9.02
2024-01-09T05:21:22.529Z,8.32
2024-01-09T05:23:48.862Z,9.02
2024-01-09T05:26:16.010Z,9.30
2024-01-09T05:28:43.128Z,9.23
2024-01-09T05:31:09.419Z,9.07
2024-01-09T05:33:36.797Z,9.52
2024-01-09T05:36:03.911Z,9.25
2024-01-09T05:38:30.279Z,9.82
2024-01-09T05:40:56.631Z,9.38
2024-01-09T05:43:23.029Z,9.50
2024-01-09T05:45:49.363Z,9.45
2024-01-09T05:48:15.801Z,9.57
2024-01-09T05:50:42.200Z,9.15
2024-01-09T05:53:09.250Z,10.18
2024-01-09T05:55:35.560Z,9.18
2024-01-09T05:58:02.138Z,9.25
2024-01-09T06:00:28.549Z,9.70
2024-01-09T06:02:54.950Z,9.20
2024-01-09T06:05:21.337Z,9.75
2024-01-09T06:07:47.797Z,9.07
2024-01-09T06:10:14.200Z,9.32
2024-01-09T06:12:40.586Z,9.55
2024-01-09T06:15:07.064Z,9.82
2024-01-09T06:17:33.757Z,9.55
2024-01-09T06:20:02.279Z,9.48
2024-01-09T06:22:28.822Z,10.00
2024-01-09T06:24:55.293Z,9.50
2024-01-09T06:27:21.680Z,9.32
2024-01-09T06:29:48.037Z,9.23
2024-01-09T06:32:14.505Z,9.15
2024-01-09T06:34:40.866Z,10.13
2024-01-09T06:37:07.441Z,9.38
2024-01-09T06:39:33.794Z,9.32
2024-01-09T06:42:00.256Z,9.70
2024-01-09T06:44:26.881Z,8.88
2024-01-09T06:46:53.272Z,9.38
2024-01-09T06:49:19.645Z,10.05
2024-01-09T06:51:46.928Z,8.65
2024-01-09T06:54:13.278Z,9.13
2024-01-09T06:56:42.641Z,9.60
2024-01-09T06:59:08.989Z,9.65
2024-01-09T07:01:36.513Z,9.57
2024-01-09T07:04:02.993Z,9.63
2024-01-09T07:06:29.477Z,10.18
2024-01-09T07:08:55.906Z,9.88
2024-01-09T07:11:22.354Z,10.73
2024-01-09T07:13:48.729Z,10.45
2024-01-09T07:16:15.042Z,9.82
2024-01-09T07:18:41.590Z,9.48
2024-01-09T07:21:08.134Z,9.88
2024-01-09T07:23:34.545Z,9.50
2024-01-09T07:26:01.023Z,10.07
2024-01-09T07:28:30.802Z,9.73
2024-01-09T07:30:58.051Z,9.88
2024-01-09T07:33:24.530Z,9.90
2024-01-09T07:35:51.045Z,9.73
2024-01-09T07:38:22.710Z,9.55
2024-01-09T07:40:49.125Z,9.55
2024-01-09T07:43:15.422Z,9.50
2024-01-09T07:45:41.729Z,9.65
2024-01-09T07:48:08.398Z,9.50
2024-01-09T07:50:34.843Z,10.05
2024-01-09T07:53:02.871Z,9.23
2024-01-09T07:55:30.651Z,9.68
2024-01-09T07:57:58.991Z,9.43
2024-01-09T08:00:25.319Z,10.02
2024-01-09T08:02:51.614Z,10.02
2024-01-09T08:05:18.106Z,9.68
2024-01-09T08:07:44.452Z,9.57
2024-01-09T08:10:11.013Z,9.48
2024-01-09T08:12:37.630Z,9.23
2024-01-09T08:15:04.239Z,9.95
2024-01-09T08:17:30.857Z,9.48
2024-01-09T08:19:57.338Z,9.20
2024-01-09T08:22:23.625Z,9.40
2024-01-09T08:24:49.972Z,9.57
2024-01-09T08:27:16.477Z,9.90
2024-01-09T08:29:45.638Z,9.93
2024-01-09T08:32:16.511Z,10.50
2024-01-09T08:34:43.300Z,9.85
2024-01-09T08:37:09.666Z,9.82
2024-01-09T08:39:36.219Z,9.55
2024-01-09T08:42:03.424Z,9.15
2024-01-09T08:44:30.731Z,9.77
2024-01-09T08:46:57.184Z,9.98
2024-01-09T08:49:23.745Z,10.00
2024-01-09T08:51:50.035Z,11.00
2024-01-09T08:54:16.476Z,10.52
2024-01-09T08:56:44.041Z,10.23
2024-01-09T08:59:10.630Z,10.25
2024-01-09T09:01:37.143Z,10.02
2024-01-09T09:04:04.147Z,10.73
2024-01-09T09:06:30.628Z,9.43
2024-01-09T09:08:57.086Z,11.07
2024-01-09T09:11:24.276Z,10.27
2024-01-09T09:13:50.637Z,9.80
2024-01-09T09:16:17.134Z,11.18
2024-01-09T09:18:45.876Z,10.35
2024-01-09T09:21:12.359Z,9.43
2024-01-09T09:23:39.360Z,9.93
2024-01-09T09:26:05.725Z,9.27
2024-01-09T09:28:40.576Z,9.43
2024-01-09T09:31:16.694Z,9.55
2024-01-09T09:33:43.613Z,9.27
2024-01-09T09:36:10.265Z,9.15
2024-01-09T09:38:36.603Z,9.25
2024-01-09T09:41:06.764Z,9.52
2024-01-09T09:43:34.067Z,7.30
2024-01-09T09:46:02.775Z,8.65
2024-01-09T09:48:32.796Z,9.93
2024-01-09T09:51:00.045Z,9.15
2024-01-09T09:53:28.586Z,9.98
2024-01-09T09:55:55.125Z,9.43
2024-01-09T09:58:21.501Z,9.05
2024-01-09T10:00:47.927Z,8.85
2024-01-09T10:03:16.853Z,9.25
2024-01-09T10:05:44.013Z,9.23
2024-01-09T10:08:12.354Z,9.52
2024-01-09T10:10:38.642Z,8.75
2024-01-09T10:13:05.018Z,9.27
2024-01-09T10:15:31.399Z,9.23
2024-01-09T10:17:59.767Z,8.82
2024-01-09T10:20:29.305Z,8.50
2024-01-09T10:22:55.970Z,8.18
2024-01-09T10:25:22.415Z,9.55
2024-01-09T10:27:49.123Z,8.85
2024-01-09T10:30:15.767Z,8.32
2024-01-09T10:32:45.344Z,7.63
2024-01-09T10:35:12.615Z,7.78
2024-01-09T10:37:38.975Z,7.97
2024-01-09T10:40:06.225Z,7.80
2024-01-09T10:42:35.488Z,7.65
2024-01-09T10:45:01.852Z,7.25
2024-01-09T10:47:29.565Z,7.50
2024-01-09T10:49:56.463Z,6.97
2024-01-09T10:52:24.304Z,7.05
2024-01-09T10:54:50.904Z,6.55
2024-01-09T10:57:17.821Z,6.57
2024-01-09T10:59:44.936Z,6.10
2024-01-09T11:02:24.089Z,6.22
2024-01-09T11:04:50.516Z,6.00
2024-01-09T11:07:17.355Z,5.70
2024-01-09T11:09:44.606Z,6.03
2024-01-09T11:12:14.205Z,6.47
2024-01-09T11:14:41.840Z,6.30
2024-01-09T11:17:09.828Z,6.32
2024-01-09T11:19:37.370Z,6.20
2024-01-09T11:22:13.394Z,5.60
2024-01-09T11:24:42.323Z,5.30
2024-01-09T11:27:10.895Z,6.07
2024-01-09T11:29:50.401Z,5.30
2024-01-09T11:32:18.160Z,5.05
2024-01-09T11:34:47.395Z,5.05
2024-01-09T11:37:15.010Z,5.60
2024-01-09T11:39:42.076Z,5.05
2024-01-09T11:42:08.562Z,5.45
2024-01-09T11:44:34.912Z,5.10
2024-01-09T11:47:01.927Z,4.90
2024-01-09T11:49:28.474Z,5.13
2024-01-09T11:51:56.221Z,5.80
2024-01-09T11:54:22.874Z,5.65
2024-01-09T11:56:50.424Z,4.78
2024-01-09T11:59:20.454Z,5.45
2024-01-09T12:01:47.487Z,6.15
2024-01-09T12:04:14.794Z,5.80
2024-01-09T12:06:44.492Z,5.43
2024-01-09T12:09:11.278Z,5.47
2024-01-09T12:11:38.830Z,5.65
2024-01-09T12:14:05.473Z,5.53
2024-01-09T12:16:32.260Z,5.25
2024-01-09T12:18:59.713Z,5.93
2024-01-09T12:21:28.053Z,5.45
2024-01-09T12:24:17.818Z,5.10
2024-01-09T12:26:43.790Z,5.60
2024-01-09T12:29:10.258Z,5.57
2024-01-09T12:31:43.641Z,5.53
2024-01-09T12:34:13.944Z,5.60
2024-01-09T12:36:41.305Z,5.32
2024-01-09T12:39:16.380Z,5.43
2024-01-09T12:41:45.710Z,5.55
2024-01-09T12:44:16.454Z,5.35
2024-01-09T12:46:47.798Z,5.13
2024-01-09T12:49:15.083Z,5.60
2024-01-09T12:51:42.452Z,5.20
2024-01-09T12:54:08.861Z,5.05
2024-01-09T12:56:35.382Z,5.32
2024-01-09T12:59:01.728Z,5.25
2024-01-09T13:01:30.847Z,5.53
2024-01-09T13:03:59.496Z,5.32
2024-01-09T13:06:26.109Z,5.28
2024-01-09T13:08:52.650Z,5.32
2024-01-09T13:11:19.027Z,5.43
2024-01-09T13:13:45.747Z,5.10
2024-01-09T13:16:12.055Z,5.10
2024-01-09T13:18:38.519Z,5.18
2024-01-09T13:21:05.137Z,5.70
2024-01-09T13:26:02.978Z,5.82
2024-01-09T13:28:29.721Z,6.50
2024-01-09T13:30:58.604Z,6.00
2024-01-09T13:33:25.641Z,5.88
2024-01-09T13:35:52.127Z,5.82
2024-01-09T13:38:18.607Z,6.15
2024-01-09T13:40:45.801Z,5.85
2024-01-09T13:43:12.061Z,6.20
2024-01-09T13:45:38.761Z,6.57
2024-01-09T13:48:05.469Z,5.95
2024-01-09T13:51:48.092Z,6.28
2024-01-09T13:53:19.797Z,5.97
2024-01-09T13:55:47.495Z,6.00
2024-01-09T13:58:14.014Z,5.80
2024-01-09T14:00:40.427Z,5.80
2024-01-09T14:03:06.972Z,6.13
2024-01-09T14:05:33.432Z,6.07
2024-01-09T14:07:59.845Z,6.30
2024-01-09T14:10:26.260Z,5.65
2024-01-09T14:12:52.619Z,6.18
2024-01-09T14:15:19.223Z,6.28
2024-01-09T14:17:45.704Z,6.57
2024-01-09T14:20:13.108Z,6.65
2024-01-09T14:22:39.848Z,6.78
2024-01-09T14:25:06.689Z,5.40
2024-01-09T14:27:33.358Z,6.15
2024-01-09T14:29:59.788Z,6.05
2024-01-09T14:32:26.872Z,5.97
2024-01-09T14:34:53.398Z,6.50
2024-01-09T14:37:19.833Z,6.43
2024-01-09T14:39:46.270Z,6.00
2024-01-09T14:42:12.649Z,6.28
2024-01-09T14:44:40.141Z,6.40
2024-01-09T14:47:06.530Z,6.35
2024-01-09T14:49:32.922Z,6.20
2024-01-09T14:52:00.397Z,5.80
2024-01-09T14:54:28.586Z,6.50
2024-01-09T14:56:55.226Z,6.50
2024-01-09T14:59:21.829Z,6.38
2024-01-09T15:01:52.334Z,6.88
2024-01-09T15:04:19.292Z,6.28
2024-01-09T15:06:48.279Z,5.93
2024-01-09T15:09:15.414Z,6.35
2024-01-09T15:11:41.767Z,6.60
2024-01-09T15:14:08.133Z,6.28
2024-01-09T15:16:34.558Z,7.13
2024-01-09T15:19:00.995Z,6.95
2024-01-09T15:21:27.410Z,7.75
2024-01-09T15:23:53.670Z,7.25
2024-01-09T15:26:20.131Z,6.80
2024-01-09T15:28:46.526Z,6.40
2024-01-09T15:31:18.474Z,6.43
2024-01-09T15:33:44.940Z,6.78
2024-01-09T15:36:12.227Z,6.35
2024-01-09T15:38:38.590Z,6.60
2024-01-09T15:41:05.241Z,7.03
2024-01-09T15:43:33.604Z,6.45
2024-01-09T15:45:59.972Z,6.30
2024-01-09T15:48:26.616Z,6.97
2024-01-09T15:50:53.359Z,6.57
2024-01-09T15:53:20.242Z,6.57
2024-01-09T15:55:46.612Z,6.78
2024-01-09T15:58:13.157Z,5.60
2024-01-09T16:00:40.462Z,6.28
2024-01-09T16:03:06.880Z,6.78
2024-01-09T16:05:34.631Z,6.05
2024-01-09T16:08:01.021Z,6.32
2024-01-09T16:10:30.671Z,6.22
2024-01-09T16:12:57.558Z,7.05
2024-01-09T16:15:23.962Z,6.35
2024-01-09T16:17:50.493Z,6.35
2024-01-09T16:20:16.945Z,6.50
2024-01-09T16:22:43.412Z,6.35
2024-01-09T16:25:11.941Z,5.78
2024-01-09T16:27:38.341Z,6.07
2024-01-09T16:30:06.896Z,5.63
2024-01-09T16:32:33.328Z,6.07
2024-01-09T16:34:59.752Z,6.20
2024-01-09T16:37:26.287Z,13.60
2024-01-09T16:39:52.604Z,9.48
2024-01-09T16:42:18.929Z,11.63
2024-01-09T16:44:45.224Z,7.70
2024-01-09T16:47:11.606Z,7.03
2024-01-09T16:49:38.164Z,7.15
2024-01-09T16:52:04.703Z,7.00
2024-01-09T16:54:31.065Z,6.93
2024-01-09T16:56:57.488Z,6.88
2024-01-09T16:59:24.988Z,7.03
2024-01-09T17:01:53.219Z,6.50
2024-01-09T17:04:20.361Z,6.50
2024-01-09T17:06:46.765Z,6.32
2024-01-09T17:09:13.219Z,7.38
2024-01-09T17:11:40.431Z,6.88
2024-01-09T17:14:07.018Z,6.78
2024-01-09T17:16:34.010Z,6.20
2024-01-09T17:19:00.958Z,6.35
2024-01-09T17:21:28.152Z,7.13
2024-01-09T17:23:54.470Z,6.53
2024-01-09T17:26:21.919Z,6.75
2024-01-09T17:28:48.288Z,6.28
2024-01-09T17:31:15.292Z,7.00
2024-01-09T17:33:41.774Z,7.32
2024-01-09T17:36:08.223Z,7.50
2024-01-09T17:38:34.529Z,7.47
2024-01-09T17:41:00.984Z,6.50
2024-01-09T17:43:27.334Z,6.68
2024-01-09T17:45:55.459Z,6.63
2024-01-09T17:48:22.013Z,7.85
2024-01-09T17:50:48.402Z,9.27
2024-01-09T17:53:14.906Z,9.15
2024-01-09T17:55:41.370Z,8.90
2024-01-09T17:58:08.389Z,9.05
2024-01-09T18:00:36.275Z,9.40
2024-01-09T18:03:02.738Z,8.80
2024-01-09T18:05:29.415Z,8.27
2024-01-09T18:07:55.989Z,8.48
2024-01-09T18:10:22.360Z,7.88
2024-01-09T18:12:48.905Z,8.43
2024-01-09T18:15:15.359Z,8.05
2024-01-09T18:17:42.904Z,7.55
2024-01-09T18:20:11.163Z,6.95
2024-01-09T18:22:37.598Z,7.68
2024-01-09T18:25:06.285Z,7.55
2024-01-09T18:27:34.581Z,7.97
2024-01-09T18:30:01.900Z,7.45
2024-01-09T18:32:31.120Z,7.63
2024-01-09T18:34:58.847Z,7.95
2024-01-09T18:37:25.689Z,7.88
2024-01-09T18:39:53.387Z,8.68
2024-01-09T18:42:20.816Z,7.68
2024-01-09T18:44:47.331Z,8.35
2024-01-09T18:47:13.706Z,9.35
2024-01-09T18:49:40.724Z,8.10
2024-01-09T18:52:07.277Z,8.82
2024-01-09T18:54:33.792Z,9.40
2024-01-09T18:57:01.425Z,9.60
2024-01-09T18:59:27.912Z,9.43
2024-01-09T19:01:58.492Z,9.15
2024-01-09T19:04:25.042Z,9.80
2024-01-09T19:06:51.523Z,9.52
2024-01-09T19:09:17.873Z,9.93
2024-01-09T19:11:44.265Z,9.52
2024-01-09T19:14:11.629Z,9.90
2024-01-09T19:16:44.786Z,9.40
2024-01-09T19:19:12.568Z,8.90
2024-01-09T19:21:45.437Z,10.55
2024-01-09T19:24:12.166Z,10.02
2024-01-09T19:26:39.262Z,10.10
2024-01-09T19:29:09.519Z,9.55
2024-01-09T19:31:44.099Z,9.23
2024-01-09T19:34:11.303Z,9.27
2024-01-09T19:36:38.000Z,9.52
2024-01-09T19:39:04.738Z,8.93
2024-01-09T19:41:31.031Z,9.85
2024-01-09T19:43:57.371Z,9.68
2024-01-09T19:46:24.876Z,8.88
2024-01-09T19:48:51.345Z,9.60
2024-01-09T19:51:17.722Z,9.38
2024-01-09T19:53:44.055Z,8.98
2024-01-09T19:56:10.792Z,9.25
2024-01-09T19:58:37.965Z,9.73
2024-01-09T20:01:05.513Z,9.75
2024-01-09T20:03:32.402Z,11.25
2024-01-09T20:05:58.845Z,15.15
2024-01-09T20:08:25.412Z,25.10
2024-01-09T20:10:53.384Z,21.02
2024-01-09T20:13:20.184Z,17.92
2024-01-09T20:15:46.532Z,18.30
2024-01-09T20:18:12.956Z,19.27
2024-01-09T20:20:39.345Z,17.73
2024-01-09T20:23:05.716Z,20.17
2024-01-09T20:25:32.235Z,19.50
2024-01-09T20:27:58.641Z,17.77
2024-01-09T20:30:26.087Z,16.33
2024-01-09T20:32:52.654Z,15.55
2024-01-09T20:35:20.286Z,13.50
2024-01-09T20:37:46.732Z,13.88
2024-01-09T20:40:13.560Z,20.10
2024-01-09T20:42:39.921Z,14.75
2024-01-09T20:45:07.007Z,12.77
2024-01-09T20:47:34.407Z,12.43
2024-01-09T20:50:01.132Z,12.82
2024-01-09T20:52:28.043Z,12.75
2024-01-09T20:54:54.412Z,11.57
2024-01-09T20:57:21.035Z,11.77
2024-01-09T20:59:47.428Z,11.82
2024-01-09T21:02:14.286Z,11.13
2024-01-09T21:04:40.756Z,12.07
2024-01-09T21:07:08.596Z,12.95
2024-01-09T21:09:35.108Z,12.25
2024-01-09T21:12:01.553Z,12.38
2024-01-09T21:14:27.862Z,12.43
2024-01-09T21:16:54.986Z,14.70
2024-01-09T21:19:21.884Z,13.43
2024-01-09T21:21:48.358Z,13.35
2024-01-09T21:24:14.817Z,12.80
2024-01-09T21:26:41.228Z,13.88
2024-01-09T21:29:08.038Z,14.07
2024-01-09T21:31:35.041Z,13.13
2024-01-09T21:34:01.970Z,13.88
2024-01-09T21:36:30.591Z,13.00
2024-01-09T21:38:57.065Z,12.43
2024-01-09T21:41:23.468Z,13.93
2024-01-09T21:43:50.147Z,13.25
2024-01-09T21:46:16.830Z,14.27
2024-01-09T21:48:43.286Z,13.57
2024-01-09T21:51:09.734Z,13.60
2024-01-09T21:53:36.036Z,14.35
2024-01-09T21:56:03.077Z,14.05
2024-01-09T21:58:29.537Z,13.48
2024-01-09T22:00:55.938Z,13.55
2024-01-09T22:03:22.371Z,14.23
2024-01-09T22:05:48.785Z,13.40
2024-01-09T22:08:15.208Z,13.25
2024-01-09T22:10:41.538Z,13.88
2024-01-09T22:13:07.859Z,14.32
2024-01-09T22:15:34.161Z,13.85
2024-01-09T22:18:00.660Z,14.20
2024-01-09T22:20:27.040Z,14.55
2024-01-09T22:22:53.466Z,13.52
2024-01-09T22:25:19.907Z,13.63
2024-01-09T22:27:46.392Z,14.20
2024-01-09T22:30:13.058Z,14.30
2024-01-09T22:32:39.542Z,13.93
2024-01-09T22:35:06.059Z,13.88
2024-01-09T22:37:32.412Z,13.40
2024-01-09T22:39:58.729Z,13.02
2024-01-09T22:42:25.044Z,13.07
2024-01-09T22:44:51.356Z,14.05
2024-01-09T22:47:17.710Z,13.90
2024-01-09T22:49:44.246Z,13.30
2024-01-09T22:52:10.707Z,13.38
2024-01-09T22:54:37.468Z,13.70
2024-01-09T22:57:03.884Z,13.43
2024-01-09T22:59:30.269Z,13.93
2024-01-09T23:01:56.697Z,14.90
2024-01-09T23:04:23.067Z,14.18
2024-01-09T23:06:49.635Z,13.25
2024-01-09T23:09:16.182Z,14.75
2024-01-09T23:11:42.548Z,14.55
2024-01-09T23:14:09.227Z,14.88
2024-01-09T23:16:36.004Z,14.70
2024-01-09T23:19:02.617Z,13.77
2024-01-09T23:21:29.065Z,14.18
2024-01-09T23:23:55.386Z,13.98
2024-01-09T23:26:21.735Z,14.38
2024-01-09T23:28:48.191Z,14.80
2024-01-09T23:31:14.580Z,15.05
2024-01-09T23:33:40.995Z,14.73
2024-01-09T23:36:08.963Z,14.32
2024-01-09T23:38:35.333Z,14.40
2024-01-09T23:41:01.755Z,13.98
2024-01-09T23:43:28.161Z,13.13
2024-01-09T23:45:54.567Z,14.73
2024-01-09T23:48:21.117Z,13.40
2024-01-09T23:50:47.815Z,13.10
2024-01-09T23:53:14.207Z,13.95
2024-01-09T23:55:40.624Z,13.63
2024-01-09T23:58:07.021Z,13.60
